Aérodrome :
LOGIN :

S'inscrire | Disclaimer

   EN    FR    IT 

 










Légende :    VFR   VFR Marginal   IFR   IFR Intensif   IFR Très Intensif
Visi : 
Plafond : 
>= 8 km
>= 3000ft
5 à 8 km
1000 à 3000 ft
1500m à 5 km
500 à 1000 ft
800 à 1500m
200 à 500 ft
< 800m
< 200 ft
Symboles :   Orages  Brouillard  Fortes neiges  Fortes précipitations  Vent > 20 kt
SIGMETs :   Divers  Orages  Givrage  Turbulence  Onde Orograph.  Cendres Volcan.






- Altitude de l'aérodrome : 170 ft
- Code IATA : KRP


EKKA - Karup

DERNIER METAR :
  • 271205Z AUTO VRB03KT 9999 BKN013/// 06/02 Q0995 TEMPO BKN012

METARs EXPIRÉS :
  • 271155Z AUTO 20007KT 170V230 9999 BKN013/// 05/01 Q0996 R09R/CLRD// TEMPO BKN012
  • 271120Z AUTO 22006KT 170V240 9999 NCD 04/02 Q0996 R09R/CLRD// TEMPO 4000 -SHRA BKN008 SCT020CB
  • 271059Z 22007KT 190V250 9999 FEW036 SCT069 04/02 Q0996 R09R/CLRD// TEMPO 3000 -SHSNRA BKN008 SCT020CB
  • 271050Z AUTO /////KT 9999 FEW036/// FEW047/// SCT069/// 04/02 Q0996 R09R/CLRD// TEMPO 3000 -SHSNRA BKN008 SCT020CB
  • 271020Z 21005KT 9999 SCT003 SCT023 03/02 Q0996 R09R/CLRD// TEMPO 3000 -SHSNRA BKN004 SCT020CB
  • 270959Z 20005KT 9999 BR BKN003 BKN030 02/01 Q0996 R09R/CLRD// TEMPO 2500 SHSNRA BKN004 SCT020CB
  • 270950Z AUTO 20005KT 9999 BKN003/// 02/01 Q0996 R09R/CLRD// TEMPO 1800 SHSN BR BKN003 SCT020CB
  • 270920Z 20007KT 1800 SHSN BR BKN003 BKN018CB 01/00 Q0996 R09R/CLRD// TEMPO 1800 SHSN BR BKN003 SCT020CB
  • 270917Z 20007KT 1500 SHSN BR OVC003 BKN018CB 01/01 Q0996 R09R/CLRD// TEMPO 1800 SHSN BR BKN003 SCT020CB

TAF TAF EKKA
Valide du 27 à 12h jusqu'au 28 à 12h UTC


271114Z 2712/2812 20005KT 9999 SCT030
TEMPO 2712/2721 2500 -SHRASN SCT008 BKN012CB
TEMPO 2721/2801 1500 SHSNRA BKN004 BKN012CB
BECMG 2722/2801 26008KT
TEMPO 2801/2808 3000 -SHSNRA SCT008 BKN012CB
TEMPO 2808/2812 27012G22KT 4000 -SHRASN SCT008 BKN012CB



MET'MAP, la Météo Aéronautique d'un coup d'oeil ! - Copyright ORBIFLY Décembre 2007 - Disclaimer

ORBIFLY MET'MAP TEAM :

Programmation & Développement : Alexandra Zaïnal
Sur une idée originale de : Baudouin d'Aumeries
Assistance à la programmation : Marc-Olivier Méhu
Soutien technique & logistique : Manuel Goepfert

Contact : metmap@orbifly.com




SOURCES & CREDITS :

   NOAA